Terminal Aerodrome Forecast
Issued by NWS Cleveland, OH

Home | Current Version | Previous Version | Text Only | Print | Product List | Glossary On
Versions: 1 2 3 4 5 6 7 8 9 10 11 12 13 14 15 16
000
FTUS41 KCLE 061425 AAA
TAFMFD
TAF AMD
KMFD 061425Z 0614/0712 27005KT P6SM FEW050 SCT100
     FM070000 20005KT P6SM SKC
     FM071100 20009KT P6SM BKN250=

USA.gov is the U.S. government's official web portal to all federal, state and local government web resources and services.